| time (UTC) | temp C | wind direction | speed KPH | gust KPH | rain 1hr cm | rain 24hr cm | rain mn cm | humidity % | barometer mb |
| 20260505221324 | 23 | 336 | 1.6 | 8.0 | 0.00 | 0.00 | 0.00 | 44 | 1011.2 |
| 20260505215117 | 24 | 218 | 1.6 | 8.0 | 0.00 | 0.00 | 0.00 | 40 | 1010.8 |
| 20260505214139 | 25 | 5 | 1.6 | 9.7 | 0.00 | 0.00 | 0.00 | 44 | 1010.8 |
| 20260505213138 | 25 | 309 | 1.6 | 9.7 | 0.00 | 0.00 | 0.00 | 41 | 1010.9 |
| 20260505212123 | 25 | 58 | 1.6 | 14.5 | 0.00 | 0.00 | 0.00 | 40 | 1010.8 |
| 20260505211114 | 25 | 74 | 3.2 | 19.3 | 0.00 | 0.00 | 0.00 | 40 | 1010.9 |
| 20260505210110 | 25 | 49 | 3.2 | 19.3 | 0.00 | 0.00 | 0.00 | 41 | 1010.9 |
| 20260505205123 | 25 | 200 | 1.6 | 6.4 | 0.00 | 0.00 | 0.00 | 42 | 1010.9 |
| 20260505204123 | 25 | 208 | 1.6 | 6.4 | 0.00 | 0.00 | 0.00 | 41 | 1010.9 |
| 20260505203059 | 25 | 182 | 1.6 | 8.0 | 0.00 | 0.00 | 0.00 | 40 | 1011.1 |
| 20260505202102 | 25 | 54 | 1.6 | 11.3 | 0.00 | 0.00 | 0.00 | 44 | 1011.1 |
| 20260505201032 | 24 | 180 | 3.2 | 11.3 | 0.00 | 0.00 | 0.00 | 41 | 1011.4 |
| 20260505200047 | 24 | 72 | 3.2 | 14.5 | 0.00 | 0.00 | 0.00 | 44 | 1011.5 |
| 20260505195020 | 24 | 292 | 1.6 | 14.5 | 0.00 | 0.00 | 0.00 | 43 | 1011.5 |
| 20260505192901 | 23 | 198 | 3.2 | 11.3 | 0.00 | 0.00 | 0.00 | 47 | 1012.0 |
| 20260505191838 | 23 | 208 | 1.6 | 9.7 | 0.00 | 0.00 | 0.00 | 47 | 1012.0 |
| 20260505185659 | 23 | 82 | 1.6 | 11.3 | 0.00 | 0.00 | 0.00 | 44 | 1012.2 |
| 20260505183612 | 23 | 105 | 3.2 | 16.1 | 0.00 | 0.00 | 0.00 | 42 | 1012.7 |
| 20260505182600 | 23 | 221 | 3.2 | 14.5 | 0.00 | 0.00 | 0.00 | 41 | 1012.7 |
| 20260505180416 | 23 | 298 | 1.6 | 16.1 | 0.00 | 0.00 | 0.00 | 44 | 1012.9 |
| 20260505175352 | 23 | 175 | 4.8 | 16.1 | 0.00 | 0.00 | 0.00 | 42 | 1012.8 |
| 20260505174415 | 22 | 355 | 3.2 | 14.5 | 0.00 | 0.00 | 0.00 | 40 | 1013.2 |
| 20260505172252 | 23 | 61 | 3.2 | 16.1 | 0.00 | 0.00 | 0.00 | 40 | 1013.4 |
| 20260505171238 | 22 | 71 | 4.8 | 16.1 | 0.00 | 0.00 | 0.00 | 41 | 1013.5 |
| 20260505170254 | 22 | 329 | 4.8 | 16.1 | 0.00 | 0.00 | 0.00 | 44 | 1013.5 |
| 20260505165312 | 22 | 325 | 3.2 | 12.9 | 0.00 | 0.00 | 0.00 | 48 | 1013.7 |
| 20260505163107 | 22 | 71 | 3.2 | 19.3 | 0.00 | 0.00 | 0.00 | 45 | 1013.8 |
| 20260505162049 | 21 | 324 | 4.8 | 19.3 | 0.00 | 0.00 | 0.00 | 49 | 1013.6 |
| 20260505161044 | 22 | 355 | 1.6 | 8.0 | 0.00 | 0.00 | 0.00 | 49 | 1013.8 |
| 20260505152848 | 20 | 85 | 1.6 | 9.7 | 0.00 | 0.00 | 0.00 | 55 | 1014.0 |
| 20260505151909 | 20 | 355 | 0.0 | 4.8 | 0.00 | 0.00 | 0.00 | 58 | 1014.1 |
| 20260505150920 | 20 | 331 | 0.0 | 3.2 | 0.00 | 0.00 | 0.00 | 61 | 1014.0 |
| 20260505121212 | 7 | 71 | 0.0 | 0.0 | 0.00 | 0.00 | 0.00 | 98 | 1014.3 |
| 20260505120219 | 6 | 71 | 0.0 | 0.0 | 0.00 | 0.00 | 0.00 | 97 | 1014.3 |
| 20260505115201 | 6 | 71 | 0.0 | 0.0 | 0.00 | 0.00 | 0.00 | 97 | 1014.0 |
| 20260505111916 | 6 | 71 | 0.0 | 0.0 | 0.00 | 0.00 | 0.00 | 97 | 1013.6 |
| 20260505110927 | 6 | 68 | 0.0 | 0.0 | 0.00 | 0.00 | 0.00 | 97 | 1013.5 |
| 20260505101933 | 6 | 96 | 0.0 | 0.0 | 0.00 | 0.00 | 0.00 | 97 | 1013.0 |
| 20260505100903 | 6 | 96 | 0.0 | 0.0 | 0.00 | 0.00 | 0.00 | 97 | 1013.0 |
| 20260505095842 | 6 | 96 | 0.0 | 0.0 | 0.00 | 0.00 | 0.00 | 97 | 1012.9 |
| 20260505094836 | 6 | 97 | 0.0 | 0.0 | 0.00 | 0.00 | 0.00 | 97 | 1012.9 |
| 20260505093808 | 6 | 96 | 0.0 | 0.0 | 0.00 | 0.00 | 0.00 | 97 | 1012.9 |
| 20260505092749 | 6 | 97 | 0.0 | 0.0 | 0.00 | 0.00 | 0.00 | 97 | 1012.9 |
| 20260505091721 | 6 | 53 | 0.0 | 0.0 | 0.00 | 0.00 | 0.00 | 97 | 1012.8 |
| 20260505090744 | 7 | 53 | 0.0 | 0.0 | 0.00 | 0.00 | 0.00 | 97 | 1012.9 |
| 20260505085737 | 7 | 53 | 0.0 | 0.0 | 0.00 | 0.00 | 0.00 | 97 | 1012.8 |
| 20260505084726 | 7 | 355 | 0.0 | 0.0 | 0.00 | 0.00 | 0.00 | 96 | 1012.9 |
| 20260505083726 | 7 | 355 | 0.0 | 0.0 | 0.00 | 0.00 | 0.00 | 96 | 1012.8 |
| 20260505082736 | 7 | 355 | 0.0 | 0.0 | 0.00 | 0.00 | 0.00 | 96 | 1013.0 |
| 20260505081748 | 7 | 46 | 0.0 | 0.0 | 0.00 | 0.00 | 0.00 | 96 | 1013.1 |
| 20260505080716 | 7 | 46 | 0.0 | 0.0 | 0.00 | 0.00 | 0.00 | 96 | 1012.9 |
| 20260505074615 | 7 | 46 | 0.0 | 0.0 | 0.00 | 0.00 | 0.00 | 96 | 1012.7 |
| 20260505073613 | 7 | 46 | 0.0 | 0.0 | 0.00 | 0.00 | 0.00 | 96 | 1012.6 |
| 20260505071501 | 8 | 355 | 0.0 | 0.0 | 0.00 | 0.00 | 0.00 | 96 | 1012.7 |
| 20260505070516 | 8 | 355 | 0.0 | 0.0 | 0.00 | 0.00 | 0.00 | 96 | 1012.5 |
| 20260505065535 | 8 | 355 | 0.0 | 0.0 | 0.00 | 0.00 | 0.00 | 95 | 1012.3 |
| 20260505064542 | 8 | 355 | 0.0 | 0.0 | 0.00 | 0.00 | 0.00 | 95 | 1012.4 |
| 20260505063550 | 8 | 355 | 0.0 | 0.0 | 0.00 | 0.00 | 0.00 | 95 | 1012.4 |
| 20260505062606 | 8 | 304 | 0.0 | 0.0 | 0.00 | 0.00 | 0.00 | 95 | 1012.6 |
| 20260505061534 | 8 | 315 | 0.0 | 0.0 | 0.00 | 0.00 | 0.00 | 95 | 1012.6 |
| 20260505060509 | 8 | 315 | 0.0 | 0.0 | 0.00 | 0.00 | 0.00 | 95 | 1012.8 |
| 20260505055503 | 8 | 315 | 0.0 | 0.0 | 0.00 | 0.00 | 0.00 | 95 | 1012.9 |
| 20260505054437 | 9 | 315 | 0.0 | 0.0 | 0.00 | 0.00 | 0.00 | 95 | 1012.7 |
| 20260505051256 | 9 | 315 | 0.0 | 0.0 | 0.00 | 0.00 | 0.00 | 94 | 1012.7 |
| 20260505041049 | 10 | 315 | 0.0 | 0.0 | 0.00 | 0.00 | 0.00 | 92 | 1012.6 |
| 20260505040059 | 10 | 320 | 0.0 | 0.0 | 0.00 | 0.00 | 0.00 | 92 | 1012.6 |
| 20260505035046 | 10 | 323 | 0.0 | 0.0 | 0.00 | 0.00 | 0.00 | 91 | 1012.9 |
| 20260505034102 | 11 | 331 | 0.0 | 0.0 | 0.00 | 0.00 | 0.00 | 91 | 1012.9 |
| 20260505033032 | 11 | 331 | 0.0 | 0.0 | 0.00 | 0.00 | 0.00 | 91 | 1012.9 |
| 20260505032016 | 11 | 295 | 0.0 | 0.0 | 0.00 | 0.00 | 0.00 | 90 | 1013.0 |
| 20260505030944 | 11 | 295 | 0.0 | 0.0 | 0.00 | 0.00 | 0.00 | 90 | 1012.9 |
| 20260505025958 | 11 | 294 | 0.0 | 0.0 | 0.00 | 0.00 | 0.00 | 91 | 1013.4 |
| 20260505025015 | 12 | 323 | 0.0 | 0.0 | 0.00 | 0.00 | 0.00 | 90 | 1013.1 |
| 20260505023950 | 12 | 323 | 0.0 | 0.0 | 0.00 | 0.00 | 0.00 | 90 | 1013.1 |
| 20260505022942 | 12 | 325 | 0.0 | 0.0 | 0.00 | 0.00 | 0.00 | 89 | 1013.1 |
| 20260505021942 | 12 | 349 | 0.0 | 0.0 | 0.00 | 0.00 | 0.00 | 88 | 1013.0 |
| 20260505020935 | 13 | 318 | 0.0 | 0.0 | 0.00 | 0.00 | 0.00 | 87 | 1012.8 |
| 20260505015927 | 13 | 199 | 0.0 | 0.0 | 0.00 | 0.00 | 0.00 | 88 | 1013.4 |
| 20260505014855 | 13 | 313 | 0.0 | 0.0 | 0.00 | 0.00 | 0.00 | 87 | 1013.2 |
| 20260505013845 | 13 | 313 | 0.0 | 0.0 | 0.00 | 0.00 | 0.00 | 86 | 1013.1 |
| 20260505012831 | 14 | 304 | 0.0 | 0.0 | 0.00 | 0.00 | 0.00 | 86 | 1012.9 |
| 20260505010730 | 15 | 307 | 0.0 | 0.0 | 0.00 | 0.00 | 0.00 | 83 | 1012.7 |
| 20260505005657 | 15 | 305 | 0.0 | 0.0 | 0.00 | 0.00 | 0.00 | 83 | 1013.0 |
| 20260505004642 | 16 | 287 | 0.0 | 0.0 | 0.00 | 0.00 | 0.00 | 81 | 1012.8 |
| 20260505003625 | 16 | 284 | 0.0 | 0.0 | 0.00 | 0.00 | 0.00 | 77 | 1012.5 |
| 20260505002559 | 17 | 284 | 0.0 | 0.0 | 0.00 | 0.00 | 0.00 | 75 | 1012.4 |
| 20260505001600 | 17 | 310 | 0.0 | 0.0 | 0.00 | 0.00 | 0.00 | 74 | 1012.4 |
| 20260505000548 | 18 | 310 | 0.0 | 0.0 | 0.00 | 0.00 | 0.00 | 74 | 1012.1 |
| 20260504235540 | 18 | 16 | 0.0 | 0.0 | 0.00 | 0.00 | 0.00 | 70 | 1012.5 |
| 20260504234537 | 19 | 12 | 0.0 | 0.0 | 0.00 | 0.00 | 0.00 | 68 | 1012.4 |
| 20260504233511 | 20 | 351 | 0.0 | 0.0 | 0.00 | 0.00 | 0.00 | 65 | 1012.3 |
| 20260504232455 | 20 | 248 | 0.0 | 0.0 | 0.00 | 0.00 | 0.00 | 60 | 1012.2 |
| 20260504231452 | 21 | 248 | 0.0 | 1.6 | 0.00 | 0.00 | 0.00 | 59 | 1012.1 |
| 20260504230505 | 21 | 252 | 0.0 | 3.2 | 0.00 | 0.00 | 0.00 | 57 | 1012.2 |
| 20260504225449 | 21 | 192 | 0.0 | 3.2 | 0.00 | 0.00 | 0.00 | 56 | 1012.1 |
| 20260504223332 | 22 | 224 | 0.0 | 6.4 | 0.00 | 0.00 | 0.00 | 51 | 1012.0 |
| 20260504222348 | 22 | 257 | 0.0 | 3.2 | 0.00 | 0.00 | 0.00 | 50 | 1012.1 |